Rechercher aéroport 
image banner adimage banner ad
image banner ad

FQQL - Quelimane / National

Situé à Quelimane, Mozambique

ICAO - FQQL, IATA - UEL

Données fournies par Airmate  

Information générale

Coordonnées: S17°51'5" E36°52'6"
Élévation : 36 feet MSL.
 
Voir autres Aéroports à Zambezia Province

Données opérationnelles

Accessible au public
Heure actuelle UTC:
Heure actuelle locale:
Météo
METAR: FQQL 260800Z 04003KT 9999 FEW020 BKN/// 29/25 Q1013
TAF: TAF FQQL 260400Z 2606/2706 15010KT 9999 BKN020 FEW025CB TX34/2613Z TN25/2703Z PROB30 TEMPO 2606/2612 5000 TSRA BKN020 FEW025CB BECMG 2618/2620 09010KT BECMG 2700/2702 32010KT
Voir NOTAMs / SUP AIP / TFR affectant cet aéroport [VIEW]
Fréquences de communication: [VIEW]

Pistes:

Identifiant RWYQFULongueur (ft)Largeur (ft)SurfaceLDA (ft)
0985°298098GVL
2700
185906148
365906148

Coordonnées de l'aéroport

Adresse: Quelimane Mozambique

Vue satellite de FQQL